createdAt,value
2018-11-10T00:00:42.836Z,33.30
2018-11-10T00:01:48.302Z,32.20
2018-11-10T00:02:54.235Z,28.37
2018-11-10T00:03:59.725Z,30.63
2018-11-10T00:05:06.127Z,30.80
2018-11-10T00:06:11.605Z,30.43
2018-11-10T00:07:17.188Z,27.87
2018-11-10T00:08:22.718Z,34.33
2018-11-10T00:09:28.091Z,31.50
2018-11-10T00:10:33.525Z,32.23
2018-11-10T00:11:38.919Z,33.60
2018-11-10T00:12:44.388Z,30.60
2018-11-10T00:13:49.881Z,28.90
2018-11-10T00:14:55.372Z,29.87
2018-11-10T00:16:00.757Z,33.50
2018-11-10T00:17:06.948Z,30.90
2018-11-10T00:18:12.424Z,31.20
2018-11-10T00:19:17.895Z,31.53
2018-11-10T00:20:23.348Z,31.23
2018-11-10T00:21:28.858Z,32.63
2018-11-10T00:22:34.277Z,32.40
2018-11-10T00:23:39.890Z,33.50
2018-11-10T00:24:45.385Z,29.83
2018-11-10T00:25:50.818Z,33.77
2018-11-10T00:26:56.188Z,31.00
2018-11-10T00:28:01.599Z,30.13
2018-11-10T00:29:07.486Z,30.07
2018-11-10T00:30:14.047Z,32.30
2018-11-10T00:31:19.568Z,32.27
2018-11-10T00:32:25.084Z,34.43
2018-11-10T00:33:30.525Z,32.20
2018-11-10T00:34:36.050Z,30.50
2018-11-10T00:35:41.465Z,33.40
2018-11-10T00:36:46.906Z,30.00
2018-11-10T00:37:52.328Z,34.77
2018-11-10T00:38:57.825Z,30.80
2018-11-10T00:40:03.322Z,31.00
2018-11-10T00:41:08.770Z,30.40
2018-11-10T00:42:14.240Z,32.30
2018-11-10T00:43:19.906Z,31.33
2018-11-10T00:44:25.370Z,30.93
2018-11-10T00:45:30.824Z,31.73
2018-11-10T00:46:36.253Z,32.70
2018-11-10T00:47:41.778Z,30.33
2018-11-10T00:48:47.172Z,35.80
2018-11-10T00:49:52.604Z,32.20
2018-11-10T00:50:58.147Z,33.50
2018-11-10T00:52:03.714Z,33.27
2018-11-10T00:53:09.177Z,33.47
2018-11-10T00:54:14.689Z,40.23
2018-11-10T00:55:20.154Z,32.20
2018-11-10T00:56:25.652Z,31.43
2018-11-10T00:57:31.124Z,35.50
2018-11-10T00:58:36.580Z,36.43
2018-11-10T00:59:42.022Z,36.10
2018-11-10T01:00:47.471Z,36.00
2018-11-10T01:01:53.006Z,35.90
2018-11-10T01:02:58.525Z,32.20
2018-11-10T01:04:04.021Z,31.90
2018-11-10T01:05:09.585Z,40.30
2018-11-10T01:06:15.058Z,32.33
2018-11-10T01:07:20.518Z,31.80
2018-11-10T01:08:25.960Z,38.73
2018-11-10T01:09:31.396Z,30.27
2018-11-10T01:10:36.853Z,36.30
2018-11-10T01:11:42.244Z,33.83
2018-11-10T01:12:47.709Z,37.20
2018-11-10T01:13:53.189Z,34.93
2018-11-10T01:14:58.644Z,32.73
2018-11-10T01:16:04.201Z,35.40
2018-11-10T01:17:09.647Z,31.73
2018-11-10T01:18:15.128Z,36.77
2018-11-10T01:19:20.573Z,33.27
2018-11-10T01:20:26.074Z,35.47
2018-11-10T01:21:31.461Z,34.40
2018-11-10T01:22:36.957Z,30.93
2018-11-10T01:23:42.378Z,35.40
2018-11-10T01:24:47.821Z,32.77
2018-11-10T01:25:53.220Z,37.70
2018-11-10T01:26:58.739Z,35.83
2018-11-10T01:28:04.299Z,32.80
2018-11-10T01:29:09.679Z,33.60
2018-11-10T01:30:16.316Z,33.20
2018-11-10T01:31:21.956Z,30.87
2018-11-10T01:32:27.676Z,33.10
2018-11-10T01:33:33.104Z,31.33
2018-11-10T01:34:38.542Z,32.33
2018-11-10T01:35:43.980Z,32.63
2018-11-10T01:36:49.443Z,28.13
2018-11-10T01:37:54.897Z,30.20
2018-11-10T01:39:01.855Z,29.70
2018-11-10T01:40:09.825Z,35.40
2018-11-10T01:41:15.245Z,34.67
2018-11-10T01:42:20.656Z,29.53
2018-11-10T01:43:26.106Z,29.93
2018-11-10T01:44:31.861Z,29.47
2018-11-10T01:45:37.260Z,34.83
2018-11-10T01:46:42.705Z,33.33
2018-11-10T01:47:48.365Z,34.97
2018-11-10T01:48:53.918Z,34.57
2018-11-10T01:49:59.441Z,33.57
2018-11-10T01:51:05.442Z,31.37
2018-11-10T01:52:11.444Z,31.00
2018-11-10T01:53:16.848Z,30.57
2018-11-10T01:54:22.430Z,31.13
2018-11-10T01:55:27.844Z,29.10
2018-11-10T01:56:33.271Z,33.20
2018-11-10T01:57:38.952Z,30.10
2018-11-10T01:58:44.320Z,30.07
2018-11-10T01:59:49.785Z,30.80
2018-11-10T02:00:55.224Z,33.30
2018-11-10T02:02:00.714Z,33.60
2018-11-10T02:03:06.524Z,31.07
2018-11-10T02:04:12.008Z,37.17
2018-11-10T02:05:18.025Z,30.30
2018-11-10T02:06:23.465Z,32.37
2018-11-10T02:07:28.904Z,38.30
2018-11-10T02:08:34.328Z,35.23
2018-11-10T02:09:39.777Z,33.67
2018-11-10T02:10:45.189Z,30.57
2018-11-10T02:11:50.670Z,33.07
2018-11-10T02:12:56.166Z,34.10
2018-11-10T02:14:01.676Z,34.37
2018-11-10T02:15:09.869Z,26.73
2018-11-10T02:16:15.298Z,31.60
2018-11-10T02:17:20.729Z,33.47
2018-11-10T02:18:26.150Z,38.13
2018-11-10T02:19:31.664Z,31.20
2018-11-10T02:20:37.234Z,33.57
2018-11-10T02:21:42.759Z,34.50
2018-11-10T02:22:48.220Z,33.87
2018-11-10T02:23:53.737Z,29.87
2018-11-10T02:24:59.208Z,32.70
2018-11-10T02:26:04.956Z,36.23
2018-11-10T02:27:15.546Z,32.60
2018-11-10T02:28:21.077Z,34.83
2018-11-10T02:29:26.529Z,30.20
2018-11-10T02:30:31.984Z,32.33
2018-11-10T02:31:37.421Z,37.00
2018-11-10T02:32:43.155Z,34.07
2018-11-10T02:33:48.760Z,34.07
2018-11-10T02:34:54.527Z,29.50
2018-11-10T02:35:59.936Z,31.37
2018-11-10T02:37:05.789Z,33.17
2018-11-10T02:38:11.252Z,31.90
2018-11-10T02:39:16.766Z,35.53
2018-11-10T02:40:22.261Z,31.13
2018-11-10T02:41:27.714Z,32.10
2018-11-10T02:42:33.140Z,34.93
2018-11-10T02:43:38.616Z,34.30
2018-11-10T02:44:44.054Z,31.83
2018-11-10T02:45:49.532Z,27.73
2018-11-10T02:46:55.108Z,32.07
2018-11-10T02:48:00.537Z,34.80
2018-11-10T02:49:06.525Z,36.03
2018-11-10T02:50:11.992Z,32.17
2018-11-10T02:51:17.486Z,32.90
2018-11-10T02:52:22.900Z,34.83
2018-11-10T02:53:28.445Z,31.50
2018-11-10T02:54:34.066Z,32.10
2018-11-10T02:55:39.522Z,34.03
2018-11-10T02:56:44.956Z,30.37
2018-11-10T02:57:50.384Z,33.57
2018-11-10T02:58:55.773Z,31.00
2018-11-10T03:00:01.199Z,37.97
2018-11-10T03:01:06.720Z,33.90
2018-11-10T03:02:12.214Z,32.83
2018-11-10T03:03:17.682Z,32.83
2018-11-10T03:04:23.298Z,33.00
2018-11-10T03:05:28.688Z,32.37
2018-11-10T03:06:34.142Z,31.03
2018-11-10T03:07:40.052Z,40.37
2018-11-10T03:08:45.473Z,28.90
2018-11-10T03:09:50.912Z,34.20
2018-11-10T03:10:56.374Z,35.93
2018-11-10T03:12:01.733Z,30.73
2018-11-10T03:13:07.512Z,33.13
2018-11-10T03:14:12.917Z,29.17
2018-11-10T03:15:18.385Z,29.37
2018-11-10T03:16:23.832Z,31.10
2018-11-10T03:17:29.318Z,29.53
2018-11-10T03:18:34.818Z,31.03
2018-11-10T03:19:40.373Z,35.40
2018-11-10T03:20:45.794Z,30.80
2018-11-10T03:21:51.346Z,36.47
2018-11-10T03:22:56.925Z,36.90
2018-11-10T03:24:02.357Z,31.87
2018-11-10T03:25:07.878Z,37.70
2018-11-10T03:26:13.343Z,36.70
2018-11-10T03:27:18.865Z,37.13
2018-11-10T03:28:24.562Z,28.67
2018-11-10T03:29:30.003Z,35.20
2018-11-10T03:30:35.478Z,38.63
2018-11-10T03:31:41.017Z,31.97
2018-11-10T03:32:46.429Z,33.27
2018-11-10T03:33:51.925Z,28.30
2018-11-10T03:34:57.360Z,31.77
2018-11-10T03:36:02.789Z,30.27
2018-11-10T03:37:08.252Z,34.70
2018-11-10T03:38:13.726Z,31.10
2018-11-10T03:39:19.343Z,30.77
2018-11-10T03:40:24.836Z,32.07
2018-11-10T03:41:30.262Z,32.60
2018-11-10T03:42:35.723Z,30.53
2018-11-10T03:43:41.172Z,32.07
2018-11-10T03:44:46.600Z,30.93
2018-11-10T03:45:52.012Z,34.60
2018-11-10T03:46:57.472Z,30.23
2018-11-10T03:48:02.961Z,31.73
2018-11-10T03:49:08.409Z,32.40
2018-11-10T03:50:13.964Z,32.27
2018-11-10T03:51:19.364Z,29.40
2018-11-10T03:52:24.816Z,31.40
2018-11-10T03:53:30.269Z,34.77
2018-11-10T03:54:35.673Z,32.97
2018-11-10T03:55:41.105Z,30.40
2018-11-10T03:56:46.505Z,37.60
2018-11-10T03:57:51.917Z,27.87
2018-11-10T03:58:57.387Z,38.73
2018-11-10T04:00:02.872Z,32.87
2018-11-10T04:01:08.762Z,39.47
2018-11-10T04:02:14.253Z,37.17
2018-11-10T04:03:19.738Z,31.87
2018-11-10T04:04:25.126Z,33.83
2018-11-10T04:05:30.605Z,30.83
2018-11-10T04:06:36.030Z,31.27
2018-11-10T04:07:42.425Z,29.10
2018-11-10T04:08:47.913Z,31.77
2018-11-10T04:09:57.860Z,31.43
2018-11-10T04:11:04.277Z,28.53
2018-11-10T04:12:09.736Z,31.60
2018-11-10T04:13:15.196Z,31.77
2018-11-10T04:14:20.926Z,27.23
2018-11-10T04:15:26.404Z,24.63
2018-11-10T04:16:31.945Z,31.90
2018-11-10T04:17:37.594Z,31.70
2018-11-10T04:18:43.056Z,31.27
2018-11-10T04:19:48.488Z,30.43
2018-11-10T04:20:53.936Z,31.43
2018-11-10T04:21:59.413Z,32.80
2018-11-10T04:23:05.310Z,29.30
2018-11-10T04:24:10.837Z,32.67
2018-11-10T04:25:16.240Z,33.17
2018-11-10T04:26:21.738Z,28.60
2018-11-10T04:27:27.324Z,29.30
2018-11-10T04:28:32.716Z,31.53
2018-11-10T04:29:38.168Z,32.00
2018-11-10T04:30:43.606Z,29.90
2018-11-10T04:31:49.149Z,33.43
2018-11-10T04:32:54.604Z,31.50
2018-11-10T04:34:00.077Z,25.87
2018-11-10T04:35:06.399Z,31.33
2018-11-10T04:36:11.838Z,31.30
2018-11-10T04:37:17.302Z,29.80
2018-11-10T04:38:22.721Z,29.67
2018-11-10T04:39:28.189Z,30.80
2018-11-10T04:40:33.641Z,37.90
2018-11-10T04:41:39.069Z,29.23
2018-11-10T04:42:44.493Z,29.93
2018-11-10T04:43:49.992Z,34.43
2018-11-10T04:44:55.459Z,26.10
2018-11-10T04:46:00.993Z,30.13
2018-11-10T04:47:06.597Z,30.77
2018-11-10T04:48:12.001Z,34.03
2018-11-10T04:49:17.459Z,33.00
2018-11-10T04:50:22.849Z,33.23
2018-11-10T04:51:28.350Z,30.70
2018-11-10T04:52:33.894Z,32.67
2018-11-10T04:53:39.409Z,37.23
2018-11-10T04:54:44.838Z,32.37
2018-11-10T04:55:50.291Z,32.40
2018-11-10T04:56:55.817Z,30.47
2018-11-10T04:58:01.205Z,33.50
2018-11-10T04:59:06.628Z,28.17
2018-11-10T05:00:15.821Z,33.83
2018-11-10T05:01:21.343Z,29.50
2018-11-10T05:02:26.806Z,27.80
2018-11-10T05:03:32.221Z,28.43
2018-11-10T05:04:37.669Z,29.67
2018-11-10T05:05:43.269Z,32.60
2018-11-10T05:06:48.814Z,30.33
2018-11-10T05:07:54.283Z,31.30
2018-11-10T05:08:59.672Z,31.83
2018-11-10T05:10:05.906Z,35.07
2018-11-10T05:11:11.346Z,26.00
2018-11-10T05:12:16.838Z,33.70
2018-11-10T05:13:22.388Z,30.30
2018-11-10T05:14:28.323Z,25.63
2018-11-10T05:15:33.712Z,31.30
2018-11-10T05:16:39.120Z,32.83
2018-11-10T05:17:44.592Z,31.10
2018-11-10T05:18:50.064Z,32.03
2018-11-10T05:19:55.618Z,38.20
2018-11-10T05:21:01.021Z,30.10
2018-11-10T05:22:06.480Z,23.50
2018-11-10T05:23:11.894Z,29.57
2018-11-10T05:24:17.557Z,31.70
2018-11-10T05:25:22.998Z,28.17
2018-11-10T05:26:28.516Z,30.03
2018-11-10T05:27:33.908Z,29.00
2018-11-10T05:28:39.328Z,28.53
2018-11-10T05:29:44.787Z,28.37
2018-11-10T05:30:50.219Z,28.70
2018-11-10T05:31:55.721Z,29.13
2018-11-10T05:33:01.125Z,30.17
2018-11-10T05:34:07.227Z,31.67
2018-11-10T05:35:12.725Z,33.93
2018-11-10T05:36:18.211Z,34.90
2018-11-10T05:37:23.726Z,29.70
2018-11-10T05:38:29.177Z,24.30
2018-11-10T05:39:34.617Z,25.20
2018-11-10T05:40:40.045Z,28.83
2018-11-10T05:41:45.449Z,30.00
2018-11-10T05:42:50.869Z,33.90
2018-11-10T05:43:56.298Z,26.47
2018-11-10T05:45:01.697Z,31.97
2018-11-10T05:46:07.601Z,29.50
2018-11-10T05:47:13.119Z,25.70
2018-11-10T05:48:18.598Z,35.20
2018-11-10T05:49:23.972Z,27.33
2018-11-10T05:50:29.403Z,31.17
2018-11-10T05:51:34.849Z,27.83
2018-11-10T05:52:40.271Z,29.53
2018-11-10T05:53:45.908Z,33.93
2018-11-10T05:54:51.333Z,26.03
2018-11-10T05:55:56.776Z,31.47
2018-11-10T05:57:02.290Z,25.80
2018-11-10T05:58:07.665Z,28.50
2018-11-10T05:59:13.158Z,29.30
2018-11-10T06:00:18.730Z,30.50
2018-11-10T06:01:24.149Z,26.53
2018-11-10T06:02:29.652Z,27.13
2018-11-10T06:03:35.084Z,30.50
2018-11-10T06:04:40.497Z,24.20
2018-11-10T06:05:46.007Z,29.20
2018-11-10T06:06:51.502Z,28.10
2018-11-10T06:07:56.937Z,33.63
2018-11-10T06:09:02.445Z,27.23
2018-11-10T06:10:09.561Z,30.77
2018-11-10T06:11:14.848Z,32.10
2018-11-10T06:12:20.346Z,26.30
2018-11-10T06:13:25.865Z,25.23
2018-11-10T06:14:31.332Z,28.20
2018-11-10T06:15:36.783Z,25.73
2018-11-10T06:16:42.245Z,28.10
2018-11-10T06:17:47.642Z,24.27
2018-11-10T06:18:53.312Z,26.57
2018-11-10T06:19:58.744Z,25.80
2018-11-10T06:21:04.224Z,24.70
2018-11-10T06:22:09.744Z,28.17
2018-11-10T06:23:15.197Z,28.17
2018-11-10T06:24:20.632Z,28.97
2018-11-10T06:25:26.086Z,29.33
2018-11-10T06:26:31.551Z,28.93
2018-11-10T06:27:36.993Z,29.47
2018-11-10T06:28:42.465Z,26.70
2018-11-10T06:29:47.884Z,27.60
2018-11-10T06:30:53.510Z,27.30
2018-11-10T06:31:58.970Z,28.10
2018-11-10T06:33:04.506Z,25.30
2018-11-10T06:34:10.033Z,26.03
2018-11-10T06:35:15.474Z,34.00
2018-11-10T06:36:21.028Z,26.80
2018-11-10T06:37:26.419Z,30.50
2018-11-10T06:38:31.817Z,26.83
2018-11-10T06:39:37.292Z,32.57
2018-11-10T06:40:42.754Z,29.97
2018-11-10T06:41:48.261Z,26.70
2018-11-10T06:42:53.705Z,31.20
2018-11-10T06:43:59.140Z,29.27
2018-11-10T06:45:05.425Z,27.10
2018-11-10T06:46:10.876Z,26.93
2018-11-10T06:47:16.373Z,28.37
2018-11-10T06:48:21.689Z,25.70
2018-11-10T06:49:27.121Z,29.30
2018-11-10T06:50:32.554Z,27.07
2018-11-10T06:51:37.963Z,27.53
2018-11-10T06:52:43.457Z,30.70
2018-11-10T06:53:48.898Z,27.77
2018-11-10T06:54:54.392Z,29.30
2018-11-10T06:55:59.792Z,29.60
2018-11-10T06:57:05.748Z,29.23
2018-11-10T06:58:11.267Z,28.27
2018-11-10T06:59:16.731Z,28.57
2018-11-10T07:00:22.121Z,25.60
2018-11-10T07:01:27.509Z,30.27
2018-11-10T07:02:33.021Z,28.67
2018-11-10T07:03:38.451Z,24.07
2018-11-10T07:04:43.878Z,23.57
2018-11-10T07:05:49.330Z,27.60
2018-11-10T07:06:54.787Z,26.73
2018-11-10T07:08:00.217Z,25.60
2018-11-10T07:09:09.713Z,25.60
2018-11-10T07:10:15.173Z,25.10
2018-11-10T07:11:20.581Z,22.77
2018-11-10T07:12:26.021Z,21.73
2018-11-10T07:13:31.538Z,21.43
2018-11-10T07:14:36.970Z,21.67
2018-11-10T07:15:42.413Z,21.60
2018-11-10T07:16:47.838Z,21.53
2018-11-10T07:17:53.292Z,23.30
2018-11-10T07:18:58.716Z,18.10
2018-11-10T07:20:04.349Z,21.50
2018-11-10T07:21:09.837Z,17.53
2018-11-10T07:22:15.240Z,27.97
2018-11-10T07:23:20.696Z,21.90
2018-11-10T07:24:26.179Z,18.03
2018-11-10T07:25:31.665Z,18.20
2018-11-10T07:26:37.170Z,17.50
2018-11-10T07:27:42.714Z,20.40
2018-11-10T07:28:48.168Z,19.27
2018-11-10T07:29:53.669Z,18.00
2018-11-10T07:30:59.202Z,19.20
2018-11-10T07:32:04.758Z,19.67
2018-11-10T07:33:10.176Z,15.97
2018-11-10T07:34:15.649Z,16.10
2018-11-10T07:35:21.255Z,14.03
2018-11-10T07:36:26.736Z,14.07
2018-11-10T07:37:32.312Z,14.70
2018-11-10T07:38:37.691Z,15.00
2018-11-10T07:39:43.141Z,15.63
2018-11-10T07:40:48.688Z,12.93
2018-11-10T07:41:54.276Z,13.33
2018-11-10T07:42:59.756Z,14.37
2018-11-10T07:44:05.648Z,12.67
2018-11-10T07:45:14.581Z,15.40
2018-11-10T07:46:20.037Z,15.70
2018-11-10T07:47:25.464Z,12.27
2018-11-10T07:48:30.945Z,16.13
2018-11-10T07:49:36.529Z,12.93
2018-11-10T07:50:42.125Z,12.57
2018-11-10T07:51:47.598Z,11.87
2018-11-10T07:52:53.060Z,11.83
2018-11-10T07:53:58.437Z,11.70
2018-11-10T07:55:03.995Z,13.23
2018-11-10T07:56:09.722Z,10.37
2018-11-10T07:57:15.204Z,11.53
2018-11-10T07:58:20.672Z,10.33
2018-11-10T07:59:26.153Z,11.40
2018-11-10T08:00:31.622Z,9.20
2018-11-10T08:01:37.113Z,11.87
2018-11-10T08:02:42.714Z,13.10
2018-11-10T08:03:48.188Z,9.17
2018-11-10T08:04:53.611Z,7.90
2018-11-10T08:05:59.020Z,7.57
2018-11-10T08:07:04.516Z,7.57
2018-11-10T08:08:10.038Z,12.73
2018-11-10T08:09:15.740Z,6.93
2018-11-10T08:10:21.156Z,7.63
2018-11-10T08:11:26.617Z,7.53
2018-11-10T08:12:32.044Z,5.57
2018-11-10T08:13:37.552Z,5.27
2018-11-10T08:14:43.056Z,12.50
2018-11-10T08:15:48.595Z,7.00
2018-11-10T08:16:54.210Z,10.53
2018-11-10T08:17:59.643Z,8.73
2018-11-10T08:19:05.425Z,5.40
2018-11-10T08:20:11.533Z,8.17
2018-11-10T08:21:17.129Z,5.37
2018-11-10T08:22:22.613Z,6.67
2018-11-10T08:23:28.073Z,6.10
2018-11-10T08:24:33.484Z,6.20
2018-11-10T08:25:38.949Z,4.00
2018-11-10T08:26:44.378Z,5.67
2018-11-10T08:27:49.809Z,8.17
2018-11-10T08:28:55.237Z,6.43
2018-11-10T08:30:00.669Z,4.80
2018-11-10T08:31:06.379Z,5.13
2018-11-10T08:32:11.899Z,7.30
2018-11-10T08:33:17.538Z,7.10
2018-11-10T08:34:23.101Z,3.40
2018-11-10T08:35:28.829Z,9.30
2018-11-10T08:36:34.539Z,5.90
2018-11-10T08:37:40.060Z,4.43
2018-11-10T08:38:45.546Z,2.93
2018-11-10T08:39:51.065Z,8.27
2018-11-10T08:40:56.684Z,4.63
2018-11-10T08:42:02.128Z,3.20
2018-11-10T08:43:07.561Z,9.40
2018-11-10T08:44:13.063Z,4.47
2018-11-10T08:45:18.562Z,4.77
2018-11-10T08:46:24.451Z,5.60
2018-11-10T08:47:30.145Z,6.40
2018-11-10T08:48:35.556Z,6.70
2018-11-10T08:49:41.011Z,6.13
2018-11-10T08:50:46.580Z,3.83
2018-11-10T08:51:52.222Z,6.10
2018-11-10T08:52:58.009Z,4.03
2018-11-10T08:54:03.513Z,3.93
2018-11-10T08:55:10.006Z,4.47
2018-11-10T08:56:15.644Z,4.67
2018-11-10T08:57:21.283Z,7.00
2018-11-10T08:58:26.791Z,9.87
2018-11-10T08:59:32.370Z,4.93
2018-11-10T09:00:37.865Z,3.80
2018-11-10T09:01:43.395Z,6.80
2018-11-10T09:02:48.837Z,6.17
2018-11-10T09:03:54.433Z,4.03
2018-11-10T09:04:59.995Z,3.33
2018-11-10T09:06:05.760Z,5.73
2018-11-10T09:07:11.194Z,4.80
2018-11-10T09:08:16.664Z,3.60
2018-11-10T09:09:22.242Z,4.20
2018-11-10T09:10:27.734Z,6.43
2018-11-10T09:11:33.160Z,3.43
2018-11-10T09:12:38.892Z,6.03
2018-11-10T09:13:44.438Z,5.33
2018-11-10T09:14:50.008Z,3.07
2018-11-10T09:15:55.597Z,5.57
2018-11-10T09:17:01.137Z,4.70
2018-11-10T09:18:07.096Z,4.70
2018-11-10T09:19:12.748Z,7.43
2018-11-10T09:20:18.372Z,7.73
2018-11-10T09:21:23.936Z,5.90
2018-11-10T09:22:29.373Z,5.97
2018-11-10T09:23:34.934Z,5.37
2018-11-10T09:24:40.520Z,4.47
2018-11-10T09:25:45.941Z,6.70
2018-11-10T09:26:51.382Z,3.80
2018-11-10T09:27:56.824Z,3.23
2018-11-10T09:29:02.248Z,3.60
2018-11-10T09:30:09.661Z,3.47
2018-11-10T09:31:15.104Z,5.90
2018-11-10T09:32:20.562Z,3.50
2018-11-10T09:33:25.965Z,4.03
2018-11-10T09:34:31.442Z,5.27
2018-11-10T09:35:36.876Z,4.23
2018-11-10T09:36:42.376Z,3.90
2018-11-10T09:37:47.781Z,3.33
2018-11-10T09:38:53.275Z,4.00
2018-11-10T09:39:58.720Z,3.00
2018-11-10T09:41:04.256Z,3.83
2018-11-10T09:42:09.681Z,8.17
2018-11-10T09:43:15.096Z,3.70
2018-11-10T09:44:20.493Z,3.87
2018-11-10T09:45:25.965Z,4.07
2018-11-10T09:46:31.552Z,5.53
2018-11-10T09:47:37.337Z,5.50
2018-11-10T09:48:42.910Z,4.30
2018-11-10T09:49:48.416Z,4.30
2018-11-10T09:50:53.939Z,3.10
2018-11-10T09:51:59.365Z,7.80
2018-11-10T09:53:04.921Z,6.27
2018-11-10T09:54:10.353Z,7.03
2018-11-10T09:55:16.353Z,7.07
2018-11-10T09:56:21.853Z,9.73
2018-11-10T09:57:27.662Z,6.37
2018-11-10T09:58:33.134Z,3.17
2018-11-10T09:59:38.553Z,4.63
2018-11-10T10:00:44.028Z,3.57
2018-11-10T10:01:49.703Z,9.30
2018-11-10T10:02:55.121Z,5.30
2018-11-10T10:04:00.603Z,4.53
2018-11-10T10:05:07.258Z,3.47
2018-11-10T10:06:12.666Z,6.63
2018-11-10T10:07:18.100Z,5.70
2018-11-10T10:08:23.621Z,5.00
2018-11-10T10:09:29.052Z,10.60
2018-11-10T10:10:34.510Z,6.93
2018-11-10T10:11:40.651Z,13.00
2018-11-10T10:12:46.346Z,4.60
2018-11-10T10:13:51.852Z,4.87
2018-11-10T10:14:57.283Z,5.00
2018-11-10T10:16:02.836Z,3.87
2018-11-10T10:17:08.250Z,3.07
2018-11-10T10:18:13.656Z,3.47
2018-11-10T10:19:19.130Z,7.57
2018-11-10T10:20:24.580Z,3.40
2018-11-10T10:21:30.218Z,5.50
2018-11-10T10:22:35.696Z,5.30
2018-11-10T10:23:41.173Z,4.67
2018-11-10T10:24:46.587Z,4.23
2018-11-10T10:25:52.082Z,4.53
2018-11-10T10:26:57.688Z,2.60
2018-11-10T10:28:03.170Z,7.40
2018-11-10T10:29:08.652Z,3.50
2018-11-10T10:30:17.837Z,4.67
2018-11-10T10:31:23.257Z,3.80
2018-11-10T10:32:28.796Z,3.43
2018-11-10T10:33:34.242Z,3.83
2018-11-10T10:34:40.024Z,2.73
2018-11-10T10:35:45.204Z,6.57
2018-11-10T10:36:50.696Z,4.43
2018-11-10T10:37:56.252Z,5.13
2018-11-10T10:39:01.699Z,5.13
2018-11-10T10:40:09.400Z,5.47
2018-11-10T10:41:14.841Z,6.27
2018-11-10T10:42:20.400Z,3.87
2018-11-10T10:43:25.832Z,3.90
2018-11-10T10:44:31.382Z,4.73
2018-11-10T10:45:36.877Z,9.60
2018-11-10T10:46:42.281Z,5.40
2018-11-10T10:47:47.672Z,4.10
2018-11-10T10:48:53.233Z,4.57
2018-11-10T10:49:58.671Z,6.37
2018-11-10T10:51:04.237Z,6.10
2018-11-10T10:52:09.670Z,4.30
2018-11-10T10:53:15.149Z,6.57
2018-11-10T10:54:20.797Z,5.60
2018-11-10T10:55:26.209Z,5.70
2018-11-10T10:56:31.855Z,5.50
2018-11-10T10:57:37.218Z,8.13
2018-11-10T10:58:42.634Z,3.83
2018-11-10T10:59:48.126Z,5.40
2018-11-10T11:00:58.852Z,7.70
2018-11-10T11:02:09.518Z,6.43
2018-11-10T11:03:20.099Z,4.93
2018-11-10T11:04:30.773Z,6.73
2018-11-10T11:05:43.459Z,5.07
2018-11-10T11:06:48.899Z,6.23
2018-11-10T11:07:54.868Z,5.93
2018-11-10T11:09:00.326Z,3.77
2018-11-10T11:10:06.963Z,4.13
2018-11-10T11:11:12.632Z,4.20
2018-11-10T11:12:18.140Z,5.30
2018-11-10T11:13:23.572Z,5.53
2018-11-10T11:14:28.994Z,6.73
2018-11-10T11:15:34.655Z,6.33
2018-11-10T11:16:39.956Z,6.30
2018-11-10T11:17:45.426Z,8.13
2018-11-10T11:18:50.861Z,9.43
2018-11-10T11:19:56.326Z,4.83
2018-11-10T11:21:01.738Z,6.73
2018-11-10T11:22:07.710Z,6.10
2018-11-10T11:23:13.293Z,4.90
2018-11-10T11:24:18.849Z,5.20
2018-11-10T11:25:24.271Z,5.40
2018-11-10T11:26:29.744Z,4.07
2018-11-10T11:27:35.141Z,3.67
2018-11-10T11:28:40.686Z,8.50
2018-11-10T11:29:46.156Z,4.50
2018-11-10T11:30:51.657Z,5.13
2018-11-10T11:31:57.161Z,5.60
2018-11-10T11:33:02.581Z,5.17
2018-11-10T11:34:08.235Z,4.57
2018-11-10T11:35:14.248Z,4.10
2018-11-10T11:36:19.740Z,4.07
2018-11-10T11:37:25.178Z,4.00
2018-11-10T11:38:30.622Z,4.27
2018-11-10T11:39:36.110Z,9.40
2018-11-10T11:40:41.546Z,3.80
2018-11-10T11:41:47.116Z,12.37
2018-11-10T11:42:52.502Z,7.83
2018-11-10T11:43:57.929Z,3.77
2018-11-10T11:45:03.538Z,4.70
2018-11-10T11:46:08.978Z,4.53
2018-11-10T11:47:14.612Z,5.23
2018-11-10T11:48:20.154Z,5.27
2018-11-10T11:49:25.683Z,4.73
2018-11-10T11:50:31.126Z,6.17
2018-11-10T11:51:36.504Z,3.70
2018-11-10T11:52:42.562Z,4.33
2018-11-10T11:53:48.017Z,6.27
2018-11-10T11:54:53.433Z,3.97
2018-11-10T11:55:58.991Z,6.73
2018-11-10T11:57:04.444Z,9.33
2018-11-10T11:58:10.014Z,6.23
2018-11-10T11:59:15.300Z,3.30
2018-11-10T12:00:20.854Z,4.37
2018-11-10T12:01:27.045Z,4.57
2018-11-10T12:02:32.556Z,4.97
2018-11-10T12:03:37.983Z,6.13
2018-11-10T12:04:43.486Z,4.80
2018-11-10T12:05:48.849Z,5.57
2018-11-10T12:06:54.411Z,5.23
2018-11-10T12:07:59.857Z,7.30
2018-11-10T12:09:08.521Z,3.17
2018-11-10T12:10:15.080Z,3.87
2018-11-10T12:11:20.465Z,4.17
2018-11-10T12:12:25.956Z,5.50
2018-11-10T12:13:31.353Z,4.07
2018-11-10T12:14:36.795Z,6.10
2018-11-10T12:15:42.271Z,5.13
2018-11-10T12:16:47.818Z,4.70
2018-11-10T12:17:53.274Z,7.63
2018-11-10T12:18:58.755Z,13.80
2018-11-10T12:20:04.261Z,4.80
2018-11-10T12:21:09.760Z,6.43
2018-11-10T12:22:15.222Z,3.87
2018-11-10T12:23:20.669Z,5.87
2018-11-10T12:24:26.137Z,8.90
2018-11-10T12:25:31.618Z,4.73
2018-11-10T12:26:37.182Z,7.50
2018-11-10T12:27:43.340Z,5.63
2018-11-10T12:28:48.785Z,7.30
2018-11-10T12:29:54.358Z,8.23
2018-11-10T12:30:59.997Z,6.53
2018-11-10T12:32:05.577Z,4.10
2018-11-10T12:33:11.164Z,6.90
2018-11-10T12:34:16.742Z,6.20
2018-11-10T12:35:22.250Z,4.93
2018-11-10T12:36:27.778Z,3.27
2018-11-10T12:37:33.445Z,3.67
2018-11-10T12:38:39.102Z,4.63
2018-11-10T12:39:44.684Z,6.70
2018-11-10T12:40:50.226Z,5.50
2018-11-10T12:41:55.884Z,4.40
2018-11-10T12:43:01.406Z,3.33
2018-11-10T12:44:07.800Z,4.30
2018-11-10T12:45:14.180Z,4.00
2018-11-10T12:46:19.768Z,7.73
2018-11-10T12:47:25.264Z,4.77
2018-11-10T12:48:30.870Z,10.50
2018-11-10T12:49:36.400Z,6.30
2018-11-10T12:50:42.022Z,3.23
2018-11-10T12:51:47.573Z,4.23
2018-11-10T12:52:53.071Z,4.87
2018-11-10T12:53:58.609Z,4.77
2018-11-10T12:55:04.426Z,4.83
2018-11-10T12:56:09.965Z,7.17
2018-11-10T12:57:15.515Z,5.93
2018-11-10T12:58:21.101Z,4.77
2018-11-10T12:59:26.508Z,5.50
2018-11-10T13:00:32.102Z,4.03
2018-11-10T13:01:37.531Z,4.17
2018-11-10T13:02:43.432Z,5.20
2018-11-10T13:03:48.907Z,3.37
2018-11-10T13:04:54.464Z,4.73
2018-11-10T13:06:00.024Z,5.10
2018-11-10T13:07:05.923Z,3.70
2018-11-10T13:08:11.433Z,3.13
2018-11-10T13:09:16.964Z,7.23
2018-11-10T13:10:22.536Z,4.60
2018-11-10T13:11:28.186Z,4.53
2018-11-10T13:12:33.649Z,5.70
2018-11-10T13:13:39.045Z,3.80
2018-11-10T13:14:44.508Z,3.93
2018-11-10T13:15:50.301Z,4.87
2018-11-10T13:16:55.859Z,6.10
2018-11-10T13:18:01.389Z,5.20
2018-11-10T13:19:08.770Z,4.57
2018-11-10T13:20:15.485Z,3.70
2018-11-10T13:21:20.914Z,7.33
2018-11-10T13:22:26.518Z,4.93
2018-11-10T13:23:32.121Z,3.63
2018-11-10T13:24:37.563Z,4.87
2018-11-10T13:26:46.129Z,3.17
2018-11-10T13:27:51.943Z,4.50
2018-11-10T13:28:57.370Z,10.03
2018-11-10T13:30:03.044Z,3.77
2018-11-10T13:31:09.073Z,3.10
2018-11-10T13:32:14.517Z,4.23
2018-11-10T13:33:20.186Z,4.73
2018-11-10T13:34:26.484Z,5.70
2018-11-10T13:35:32.113Z,3.40
2018-11-10T13:36:37.678Z,3.80
2018-11-10T13:37:43.213Z,5.73
2018-11-10T13:38:48.757Z,4.20
2018-11-10T13:39:54.406Z,3.10
2018-11-10T13:40:59.985Z,3.13
2018-11-10T13:42:06.079Z,3.30
2018-11-10T13:43:11.622Z,3.03
2018-11-10T13:44:17.268Z,4.50
2018-11-10T13:45:22.637Z,3.63
2018-11-10T13:46:28.186Z,2.60
2018-11-10T13:47:33.738Z,5.10
2018-11-10T13:48:39.390Z,3.67
2018-11-10T13:49:45.026Z,3.93
2018-11-10T13:50:50.754Z,4.37
2018-11-10T13:51:56.528Z,3.03
2018-11-10T13:53:02.316Z,3.47
2018-11-10T13:54:07.460Z,2.47
2018-11-10T13:55:13.839Z,6.10
2018-11-10T13:56:19.421Z,2.50
2018-11-10T13:57:24.949Z,3.50
2018-11-10T13:58:30.547Z,2.83
2018-11-10T13:59:35.985Z,4.93
2018-11-10T14:00:41.547Z,3.23
2018-11-10T14:01:46.975Z,4.20
2018-11-10T14:02:52.387Z,2.60
2018-11-10T14:03:58.062Z,2.90
2018-11-10T14:05:03.704Z,3.00
2018-11-10T14:06:10.273Z,3.23
2018-11-10T14:07:15.846Z,3.50
2018-11-10T14:08:21.260Z,2.37
2018-11-10T14:09:26.682Z,2.67
2018-11-10T14:10:32.281Z,3.47
2018-11-10T14:11:38.028Z,2.60
2018-11-10T14:12:44.225Z,2.53
2018-11-10T14:13:49.519Z,2.60
2018-11-10T14:14:54.951Z,2.73
2018-11-10T14:16:00.430Z,2.27
2018-11-10T14:17:06.462Z,5.40
2018-11-10T14:18:12.059Z,3.40